Time;durP1;ratioP1;P1;durP2;ratioP2;P2;SDS_P1;SDS_P2;PMS_P1;PMS_P2;Temp;Humidity;BMP_temperature;BMP_pressure;BME280_temperature;BME280_humidity;BME280_pressure;Samples;Min_cycle;Max_cycle;Signal;HPM_P1;HPM_P2
2022/08/28 00:02:05;;;;;;;42.78;30.65;;;16.60;77.60;;;;;;5073653;28;20107;-65
2022/08/28 00:04:31;;;;;;;61.47;38.53;;;16.60;77.70;;;;;;5073481;28;20166;-65
2022/08/28 00:06:57;;;;;;;39.90;31.73;;;16.60;77.60;;;;;;5074984;28;20056;-66
2022/08/28 00:09:23;;;;;;;41.13;29.92;;;16.50;77.00;;;;;;5072438;28;20027;-67
2022/08/28 00:11:49;;;;;;;63.63;40.67;;;16.60;76.90;;;;;;5075064;28;20027;-67
2022/08/28 00:14:17;;;;;;;49.20;35.05;;;16.50;77.80;;;;;;5074860;28;20029;-67
2022/08/28 00:16:43;;;;;;;41.60;33.00;;;16.50;77.20;;;;;;5074315;28;20091;-65
2022/08/28 00:19:09;;;;;;;59.85;39.05;;;16.50;77.30;;;;;;5071823;28;20405;-66
2022/08/28 00:21:36;;;;;;;53.22;36.83;;;16.50;77.90;;;;;;5066194;28;20027;-67
2022/08/28 00:24:02;;;;;;;66.13;40.78;;;16.40;79.00;;;;;;5070191;28;20056;-67
2022/08/28 00:29:12;;;;;;;57.67;36.65;;;16.10;79.80;;;;;;5072479;28;20035;-67
2022/08/28 00:31:38;;;;;;;43.35;32.42;;;16.00;79.40;;;;;;5071235;28;20025;-67
2022/08/28 00:34:06;;;;;;;49.13;34.38;;;16.00;78.00;;;;;;5074858;28;20428;-66
2022/08/28 00:36:32;;;;;;;50.53;35.58;;;16.00;77.60;;;;;;5071036;28;20044;-66
2022/08/28 00:38:59;;;;;;;49.20;34.17;;;16.00;78.50;;;;;;5076647;28;20021;-67
2022/08/28 00:41:30;;;;;;;54.00;36.50;;;16.00;77.40;;;;;;5076022;28;20147;-67
2022/08/28 00:44:12;;;;;;;69.57;40.78;;;16.00;77.10;;;;;;5074228;28;20421;-67
2022/08/28 00:46:41;;;;;;;70.38;40.80;;;16.10;77.50;;;;;;5072967;28;20036;-66
2022/08/28 00:49:12;;;;;;;61.33;38.15;;;16.10;77.30;;;;;;5075409;28;20485;-67
2022/08/28 00:54:25;;;;;;;53.35;35.55;;;16.10;77.20;;;;;;5077155;28;20043;-67
2022/08/28 00:56:53;;;;;;;56.10;37.03;;;16.10;76.20;;;;;;5059549;28;20303;-68
2022/08/28 00:59:22;;;;;;;50.53;34.75;;;16.20;76.20;;;;;;5061392;28;20028;-67
2022/08/28 01:01:49;;;;;;;63.78;39.42;;;16.20;76.50;;;;;;5053275;28;20032;-67
2022/08/28 01:04:20;;;;;;;60.30;38.80;;;16.20;76.40;;;;;;5054001;28;20650;-67
2022/08/28 01:06:52;;;;;;;67.30;40.75;;;16.30;76.30;;;;;;5052969;28;21004;-67
2022/08/28 01:09:24;;;;;;;57.45;38.42;;;16.30;76.10;;;;;;5052544;28;20131;-67
2022/08/28 01:11:53;;;;;;;65.68;40.55;;;16.30;76.10;;;;;;5061698;28;20067;-66
2022/08/28 01:14:22;;;;;;;70.07;43.17;;;16.30;76.40;;;;;;5062240;28;20042;-67
2022/08/28 01:16:54;;;;;;;64.13;40.90;;;16.30;76.40;;;;;;5072430;28;20024;-66
2022/08/28 01:19:27;;;;;;;63.33;40.97;;;16.30;76.40;;;;;;5071016;28;20103;-67
2022/08/28 01:21:57;;;;;;;57.00;36.40;;;16.40;76.40;;;;;;5074931;28;20043;-67
2022/08/28 01:24:23;;;;;;;62.42;39.53;;;16.40;76.70;;;;;;5072105;28;20040;-67
2022/08/28 01:26:49;;;;;;;49.67;35.58;;;16.40;76.90;;;;;;5069844;28;20070;-67
2022/08/28 01:29:19;;;;;;;61.95;39.08;;;16.40;76.90;;;;;;5064943;28;20058;-67
2022/08/28 01:31:46;;;;;;;55.13;37.70;;;16.50;77.20;;;;;;5074996;28;20417;-66
2022/08/28 01:34:15;;;;;;;51.15;35.10;;;16.50;77.20;;;;;;5072491;28;20055;-67
2022/08/28 01:36:41;;;;;;;51.13;36.03;;;16.50;77.70;;;;;;5068601;28;20086;-66
2022/08/28 01:39:08;;;;;;;51.42;33.47;;;16.40;78.20;;;;;;5073994;28;20032;-66
2022/08/28 01:41:39;;;;;;;51.33;35.40;;;16.30;78.60;;;;;;5072923;28;20024;-68
2022/08/28 01:44:05;;;;;;;43.63;32.50;;;16.30;78.20;;;;;;5070494;28;20465;-68
2022/08/28 01:46:31;;;;;;;69.53;39.90;;;16.20;78.40;;;;;;5069695;28;20304;-67
2022/08/28 01:48:56;;;;;;;44.03;32.47;;;16.20;78.50;;;;;;5074011;28;20421;-68
2022/08/28 01:51:22;;;;;;;66.88;39.15;;;16.10;78.10;;;;;;5069206;28;20032;-68
2022/08/28 01:53:48;;;;;;;56.15;34.17;;;16.10;78.10;;;;;;5074165;28;20020;-67
2022/08/28 01:56:15;;;;;;;45.30;30.30;;;16.10;78.30;;;;;;5072650;28;20333;-67
2022/08/28 01:58:41;;;;;;;49.88;34.35;;;16.10;77.40;;;;;;5073912;28;20147;-67
2022/08/28 02:01:16;;;;;;;52.72;33.55;;;16.10;77.30;;;;;;5074234;28;20024;-67
2022/08/28 02:03:41;;;;;;;62.85;38.97;;;16.10;76.90;;;;;;5073489;28;20299;-67
2022/08/28 02:06:08;;;;;;;43.17;31.58;;;16.20;77.10;;;;;;5068806;28;20090;-67
2022/08/28 02:08:37;;;;;;;56.03;36.05;;;16.20;77.20;;;;;;5072886;28;20062;-67
2022/08/28 02:11:05;;;;;;;56.65;36.80;;;16.30;76.90;;;;;;5070592;28;20048;-67
2022/08/28 02:13:31;;;;;;;39.83;29.55;;;16.30;77.40;;;;;;5069777;28;20075;-68
2022/08/28 02:15:59;;;;;;;42.80;31.75;;;16.30;77.70;;;;;;5072581;28;20033;-68
2022/08/28 02:18:25;;;;;;;46.28;31.73;;;16.30;77.50;;;;;;5071144;28;20021;-67
2022/08/28 02:20:50;;;;;;;36.28;28.42;;;16.30;78.00;;;;;;5070936;28;20615;-67
2022/08/28 02:23:16;;;;;;;36.53;27.20;;;16.40;77.20;;;;;;5070641;28;20077;-66
2022/08/28 02:25:42;;;;;;;37.33;27.88;;;16.40;78.40;;;;;;5069859;28;20033;-67
2022/08/28 02:28:08;;;;;;;46.80;31.63;;;16.40;78.80;;;;;;5074696;28;21844;-67
2022/08/28 02:30:37;;;;;;;42.78;28.08;;;16.40;78.80;;;;;;5067230;28;20025;-68
2022/08/28 02:33:03;;;;;;;37.08;28.73;;;16.50;78.40;;;;;;5069280;28;20016;-68
2022/08/28 02:35:30;;;;;;;35.58;28.17;;;16.50;79.20;;;;;;5074004;28;20103;-67
2022/08/28 02:37:55;;;;;;;29.58;24.75;;;16.50;79.80;;;;;;5068565;28;20421;-67
2022/08/28 02:40:23;;;;;;;38.53;28.45;;;16.50;79.80;;;;;;5070572;28;20039;-68
2022/08/28 02:42:51;;;;;;;37.00;27.50;;;16.60;80.00;;;;;;5071947;28;20029;-67
2022/08/28 02:45:17;;;;;;;36.22;27.48;;;16.60;80.20;;;;;;5072456;28;20025;-67
2022/08/28 02:47:44;;;;;;;41.28;29.88;;;16.60;80.30;;;;;;5070812;28;20020;-67
2022/08/28 02:50:13;;;;;;;33.40;26.60;;;16.50;81.20;;;;;;5066953;28;20035;-67
2022/08/28 02:52:40;;;;;;;42.60;31.20;;;16.50;81.30;;;;;;5073341;28;20020;-67
2022/08/28 02:55:07;;;;;;;39.15;27.85;;;16.50;82.00;;;;;;5072839;28;20029;-66
2022/08/28 02:57:34;;;;;;;42.00;30.63;;;16.50;82.50;;;;;;5067213;28;20311;-67
2022/08/28 03:00:00;;;;;;;38.00;29.70;;;16.50;82.60;;;;;;5066841;28;20139;-67
2022/08/28 03:02:26;;;;;;;50.38;34.33;;;16.40;82.70;;;;;;5070442;28;20035;-67
2022/08/28 03:04:54;;;;;;;36.50;27.50;;;16.40;82.60;;;;;;5071963;28;20055;-67
2022/08/28 03:07:21;;;;;;;42.00;31.33;;;16.50;82.10;;;;;;5071474;28;20108;-67
2022/08/28 03:09:47;;;;;;;43.85;31.40;;;16.50;82.10;;;;;;5069783;28;20032;-67
2022/08/28 03:12:14;;;;;;;50.33;34.88;;;16.50;82.30;;;;;;5070409;28;20020;-66
2022/08/28 03:14:41;;;;;;;49.75;34.75;;;16.60;82.40;;;;;;5070011;28;20044;-67
2022/08/28 03:17:07;;;;;;;44.63;30.65;;;16.60;83.00;;;;;;5064590;28;20024;-67
2022/08/28 03:19:32;;;;;;;44.40;31.73;;;16.60;82.80;;;;;;5071764;28;20376;-67
2022/08/28 03:21:58;;;;;;;41.17;29.75;;;16.60;82.30;;;;;;5071313;28;20047;-67
2022/08/28 03:24:24;;;;;;;38.78;28.02;;;16.50;82.90;;;;;;5067340;28;20028;-67
2022/08/28 03:26:50;;;;;;;40.83;28.85;;;16.50;82.90;;;;;;5060888;28;20036;-67
2022/08/28 03:29:15;;;;;;;41.03;30.35;;;16.50;81.90;;;;;;5065858;28;20021;-67
2022/08/28 03:31:41;;;;;;;38.92;29.45;;;16.50;82.60;;;;;;5067492;28;20107;-67
2022/08/28 03:34:07;;;;;;;48.20;34.22;;;16.50;83.00;;;;;;5067486;28;20025;-67
2022/08/28 03:36:33;;;;;;;39.45;28.92;;;16.50;82.90;;;;;;5067711;28;20039;-67
2022/08/28 03:39:03;;;;;;;44.15;32.08;;;16.50;82.50;;;;;;5071655;28;20032;-67
2022/08/28 03:41:30;;;;;;;41.28;29.67;;;16.40;82.30;;;;;;5069842;28;20028;-67
2022/08/28 03:43:58;;;;;;;50.00;33.10;;;16.40;82.20;;;;;;5071390;28;20033;-67
2022/08/28 03:46:25;;;;;;;38.60;29.05;;;16.40;81.90;;;;;;5061647;28;20116;-66
2022/08/28 03:48:52;;;;;;;37.00;27.30;;;16.40;81.50;;;;;;5072008;28;20483;-66
2022/08/28 03:51:21;;;;;;;31.70;23.13;;;16.40;81.40;;;;;;5072089;28;20025;-67
2022/08/28 03:53:47;;;;;;;39.85;28.55;;;16.40;81.70;;;;;;5067773;28;20429;-67
2022/08/28 03:56:15;;;;;;;51.40;33.67;;;16.40;81.60;;;;;;5070737;28;20058;-67
2022/08/28 03:58:41;;;;;;;31.52;24.70;;;16.40;81.90;;;;;;5073847;28;20028;-67
2022/08/28 04:01:08;;;;;;;28.65;22.95;;;16.30;81.70;;;;;;5063950;28;20032;-67
2022/08/28 04:03:34;;;;;;;28.95;21.98;;;16.30;81.40;;;;;;5064996;28;20072;-67
2022/08/28 04:06:00;;;;;;;29.08;22.85;;;16.40;81.30;;;;;;5071134;28;20024;-67
2022/08/28 04:08:28;;;;;;;30.83;23.65;;;16.50;81.40;;;;;;5070564;28;20695;-67
2022/08/28 04:10:58;;;;;;;36.67;26.60;;;16.50;81.40;;;;;;5066375;28;20295;-67
2022/08/28 04:13:24;;;;;;;30.55;24.38;;;16.50;81.50;;;;;;5068441;28;20029;-67
2022/08/28 04:16:09;;;;;;;29.50;21.92;;;16.50;81.90;;;;;;5068033;28;20083;-67
2022/08/28 04:18:35;;;;;;;40.13;28.38;;;16.50;82.80;;;;;;5068141;28;20021;-67
2022/08/28 04:21:08;;;;;;;35.20;24.95;;;16.50;83.70;;;;;;5074396;28;20036;-67
2022/08/28 04:23:35;;;;;;;33.40;24.08;;;16.50;83.20;;;;;;5072377;28;20035;-67
2022/08/28 04:26:06;;;;;;;32.70;25.00;;;16.50;83.70;;;;;;5075297;28;20333;-66
2022/08/28 04:28:32;;;;;;;34.72;25.65;;;16.50;83.70;;;;;;5069746;28;20221;-66
2022/08/28 04:30:58;;;;;;;33.65;24.45;;;16.50;83.70;;;;;;5073262;28;20016;-66
2022/08/28 04:33:25;;;;;;;32.75;25.42;;;16.50;83.70;;;;;;5068414;28;20452;-66
2022/08/28 04:35:52;;;;;;;31.88;24.42;;;16.60;83.80;;;;;;5074490;28;20028;-66
2022/08/28 04:38:18;;;;;;;49.03;31.92;;;16.60;84.50;;;;;;5073041;28;20042;-68
2022/08/28 04:40:44;;;;;;;35.33;25.83;;;16.50;84.50;;;;;;5073875;28;20111;-69
2022/08/28 04:43:12;;;;;;;36.75;25.95;;;16.50;84.00;;;;;;5075179;28;20457;-68
2022/08/28 04:45:42;;;;;;;36.80;25.48;;;16.60;84.40;;;;;;5074341;28;20110;-67
2022/08/28 04:48:12;;;;;;;39.83;27.77;;;16.60;84.20;;;;;;5075984;28;20020;-67
2022/08/28 04:50:43;;;;;;;34.85;26.42;;;16.60;84.10;;;;;;5074061;28;20020;-67
2022/08/28 04:53:13;;;;;;;40.53;28.67;;;16.70;83.70;;;;;;5071096;28;20021;-67
2022/08/28 04:55:47;;;;;;;51.15;31.55;;;16.70;84.30;;;;;;5074400;28;20422;-67
2022/08/28 04:58:14;;;;;;;;;;;16.70;84.10;;;;;;5072891;28;20052;-67
2022/08/28 05:00:42;;;;;;;29.83;21.52;;;16.70;84.00;;;;;;5069938;28;20297;-67
2022/08/28 05:03:10;;;;;;;28.23;21.27;;;16.60;84.60;;;;;;5075131;28;20048;-68
2022/08/28 05:05:44;;;;;;;27.27;21.42;;;16.60;84.50;;;;;;5069878;28;20032;-67
2022/08/28 05:08:11;;;;;;;26.13;20.98;;;16.70;84.20;;;;;;5069018;28;20020;-67
2022/08/28 05:10:39;;;;;;;33.90;25.50;;;16.70;84.30;;;;;;5074750;28;20025;-67
2022/08/28 05:13:05;;;;;;;48.17;31.80;;;16.70;84.40;;;;;;5071672;28;20025;-67
2022/08/28 05:15:32;;;;;;;59.22;35.60;;;16.80;84.60;;;;;;5075177;28;20088;-67
2022/08/28 05:18:00;;;;;;;43.38;30.17;;;16.80;84.60;;;;;;5074987;28;20364;-67
2022/08/28 05:20:26;;;;;;;33.88;25.10;;;16.90;83.70;;;;;;5076961;28;20043;-67
2022/08/28 05:22:51;;;;;;;31.02;24.60;;;16.90;85.00;;;;;;5075248;28;20052;-67
2022/08/28 05:25:17;;;;;;;35.47;25.30;;;16.90;86.10;;;;;;5074760;28;20033;-67
2022/08/28 05:27:43;;;;;;;28.13;22.58;;;16.90;86.80;;;;;;5072377;28;20048;-67
2022/08/28 05:30:09;;;;;;;35.13;25.00;;;16.90;87.20;;;;;;5075921;28;20029;-67
2022/08/28 05:32:35;;;;;;;33.95;25.35;;;17.00;86.70;;;;;;5072774;28;20322;-67
2022/08/28 05:35:00;;;;;;;34.45;25.33;;;17.00;87.10;;;;;;5072391;28;20082;-67
2022/08/28 05:37:26;;;;;;;44.05;30.55;;;17.00;87.40;;;;;;5070632;28;20024;-67
2022/08/28 05:39:52;;;;;;;37.15;26.30;;;17.10;87.10;;;;;;5073730;28;20024;-67
2022/08/28 05:42:17;;;;;;;47.92;32.83;;;17.20;87.20;;;;;;5073339;28;20307;-65
2022/08/28 05:44:43;;;;;;;40.60;28.65;;;17.30;87.30;;;;;;5073292;28;20064;-67
2022/08/28 05:47:09;;;;;;;45.00;30.23;;;17.50;88.00;;;;;;5072902;28;20112;-67
2022/08/28 05:49:35;;;;;;;39.72;27.63;;;17.60;88.90;;;;;;5074621;28;20082;-67
2022/08/28 05:52:01;;;;;;;43.25;28.15;;;17.70;89.60;;;;;;5065501;28;20032;-67
2022/08/28 05:54:27;;;;;;;42.15;28.25;;;17.80;90.00;;;;;;5073358;28;20048;-66
2022/08/28 05:56:52;;;;;;;40.67;28.75;;;18.00;91.60;;;;;;5063888;28;20067;-67
2022/08/28 05:59:18;;;;;;;39.70;28.48;;;18.10;92.20;;;;;;5073963;28;20064;-67
2022/08/28 06:01:48;;;;;;;40.88;28.70;;;18.30;92.70;;;;;;5071031;28;20027;-67
2022/08/28 06:04:16;;;;;;;37.53;26.92;;;18.40;93.60;;;;;;5070142;28;20131;-67
2022/08/28 06:06:43;;;;;;;41.70;28.88;;;18.50;94.70;;;;;;5063987;28;20040;-67
2022/08/28 06:09:18;;;;;;;48.90;32.90;;;18.60;95.40;;;;;;5070013;28;20025;-67
2022/08/28 06:11:45;;;;;;;71.63;40.60;;;18.50;95.40;;;;;;5072855;28;20124;-67
2022/08/28 06:14:12;;;;;;;64.18;37.85;;;18.60;95.70;;;;;;5073185;28;20024;-67
2022/08/28 06:16:40;;;;;;;62.65;38.40;;;18.50;95.50;;;;;;5072564;28;20044;-67
2022/08/28 06:19:08;;;;;;;57.50;37.13;;;18.40;95.90;;;;;;5073035;28;20021;-67
2022/08/28 06:21:36;;;;;;;54.58;34.45;;;18.30;96.10;;;;;;5074729;28;20082;-66
2022/08/28 06:24:02;;;;;;;63.28;39.08;;;18.10;94.50;;;;;;5072470;28;20445;-67
2022/08/28 06:26:28;;;;;;;47.28;32.17;;;18.00;94.00;;;;;;5070547;28;20038;-67
2022/08/28 06:28:57;;;;;;;47.03;31.08;;;18.00;93.10;;;;;;5072674;28;20099;-67
2022/08/28 06:31:25;;;;;;;43.03;30.13;;;18.10;94.30;;;;;;5074536;28;20800;-67
2022/08/28 06:33:56;;;;;;;40.67;28.08;;;18.20;95.00;;;;;;5074110;28;20028;-67
2022/08/28 06:36:23;;;;;;;41.35;29.67;;;18.40;95.20;;;;;;5066794;28;20025;-67
2022/08/28 06:38:49;;;;;;;45.13;29.75;;;18.50;96.20;;;;;;5071350;28;20029;-67
2022/08/28 06:41:15;;;;;;;39.42;27.60;;;18.50;97.30;;;;;;5072950;28;20032;-67
2022/08/28 06:43:41;;;;;;;34.25;24.63;;;18.50;97.60;;;;;;5070016;28;20028;-67
2022/08/28 06:46:07;;;;;;;35.53;25.77;;;18.50;97.40;;;;;;5072765;28;20452;-67
2022/08/28 06:48:32;;;;;;;31.10;23.50;;;18.60;96.60;;;;;;5074247;28;20324;-67
2022/08/28 06:50:58;;;;;;;28.08;20.30;;;18.80;98.00;;;;;;5072509;28;20024;-67
2022/08/28 06:53:27;;;;;;;37.15;27.67;;;19.00;98.00;;;;;;5067694;28;20661;-67
2022/08/28 06:55:57;;;;;;;36.47;27.27;;;19.30;98.00;;;;;;5068847;28;20107;-67
2022/08/28 06:58:22;;;;;;;39.33;29.33;;;19.30;98.00;;;;;;5073206;28;20025;-67
2022/08/28 07:00:49;;;;;;;35.08;24.48;;;19.40;98.00;;;;;;5073198;28;20297;-67
2022/08/28 07:03:15;;;;;;;31.25;24.20;;;19.50;98.00;;;;;;5071397;28;20344;-67
2022/08/28 07:05:41;;;;;;;36.88;25.55;;;19.70;98.00;;;;;;5073507;28;20413;-67
2022/08/28 07:08:06;;;;;;;35.53;27.50;;;19.80;98.00;;;;;;5072290;28;20090;-67
2022/08/28 07:10:32;;;;;;;32.15;23.42;;;19.80;98.00;;;;;;5071862;28;20042;-67
2022/08/28 07:12:59;;;;;;;28.38;21.33;;;19.90;98.00;;;;;;5075108;28;20035;-67
2022/08/28 07:15:25;;;;;;;30.65;23.45;;;19.90;98.00;;;;;;5072393;28;20289;-67
2022/08/28 07:17:51;;;;;;;28.48;21.02;;;20.00;98.00;;;;;;5073339;28;20451;-67
2022/08/28 07:20:17;;;;;;;24.33;18.13;;;20.10;98.00;;;;;;5072949;28;20020;-66
2022/08/28 07:22:43;;;;;;;19.73;15.48;;;20.30;98.00;;;;;;5074932;28;20041;-66
2022/08/28 07:25:09;;;;;;;21.38;15.40;;;20.50;98.00;;;;;;5070393;28;20437;-66
2022/08/28 07:27:36;;;;;;;21.48;16.98;;;20.60;98.00;;;;;;5075181;28;20102;-66
2022/08/28 07:30:06;;;;;;;20.85;16.38;;;20.70;98.00;;;;;;5074494;28;20021;-66
2022/08/28 07:32:32;;;;;;;17.10;13.50;;;20.70;98.00;;;;;;5073365;28;20033;-68
2022/08/28 07:34:58;;;;;;;27.10;21.40;;;20.70;98.00;;;;;;5074363;28;20043;-67
2022/08/28 07:37:25;;;;;;;28.77;20.75;;;20.50;97.90;;;;;;5073161;28;20032;-67
2022/08/28 07:39:50;;;;;;;29.27;22.45;;;20.10;98.00;;;;;;5071960;28;20016;-67
2022/08/28 07:44:48;;;;;;;27.27;21.63;;;20.10;98.00;;;;;;5074416;28;20329;-66
2022/08/28 07:45:05;;;;;;;19.63;15.07;;;20.10;98.00;;;;;;5072902;28;20329;-66
2022/08/28 07:47:31;;;;;;;17.13;13.30;;;20.10;98.00;;;;;;5072594;28;20037;-67
2022/08/28 07:49:59;;;;;;;24.08;15.38;;;20.20;98.00;;;;;;5074277;28;20099;-66
2022/08/28 07:52:26;;;;;;;17.33;13.68;;;20.40;98.00;;;;;;5072616;28;20025;-66
2022/08/28 07:54:53;;;;;;;17.13;11.93;;;20.50;98.00;;;;;;5074332;28;20024;-66
2022/08/28 07:57:20;;;;;;;16.17;11.38;;;20.40;97.90;;;;;;5077739;28;20028;-66
2022/08/28 07:59:46;;;;;;;19.67;13.85;;;20.50;97.10;;;;;;5076341;28;20037;-68
2022/08/28 08:02:12;;;;;;;19.95;15.98;;;20.40;97.50;;;;;;5074315;28;20040;-66
2022/08/28 08:04:39;;;;;;;21.40;15.52;;;20.40;97.40;;;;;;5076879;28;20352;-66
2022/08/28 08:07:05;;;;;;;28.40;20.35;;;20.70;98.00;;;;;;5075888;28;20028;-66
2022/08/28 08:09:37;;;;;;;19.80;15.07;;;21.20;97.40;;;;;;5076603;28;20129;-66
2022/08/28 08:12:04;;;;;;;19.88;15.45;;;21.30;96.00;;;;;;5073763;28;20032;-67
2022/08/28 08:14:30;;;;;;;21.42;14.60;;;21.30;96.80;;;;;;5058981;28;20329;-67
2022/08/28 08:17:00;;;;;;;20.10;14.18;;;21.30;96.50;;;;;;5072193;28;20024;-66
2022/08/28 08:19:25;;;;;;;18.30;12.68;;;21.30;95.60;;;;;;5077898;28;20032;-67
2022/08/28 08:21:52;;;;;;;18.42;13.55;;;21.10;95.80;;;;;;5074663;28;20037;-66
2022/08/28 08:24:19;;;;;;;21.25;15.93;;;21.00;96.60;;;;;;5075016;28;20409;-66
2022/08/28 08:26:46;;;;;;;19.67;14.20;;;20.80;97.00;;;;;;5074811;28;20402;-66
2022/08/28 08:29:12;;;;;;;18.23;13.85;;;20.90;97.00;;;;;;5071917;28;20108;-66
2022/08/28 08:31:39;;;;;;;16.70;13.00;;;21.20;97.30;;;;;;5074635;28;20094;-66
2022/08/28 08:34:07;;;;;;;14.60;11.80;;;21.70;96.60;;;;;;5072779;28;20021;-67
2022/08/28 08:36:34;;;;;;;17.67;13.30;;;22.30;95.50;;;;;;5076351;28;20063;-67
2022/08/28 08:39:01;;;;;;;17.42;13.50;;;23.00;93.60;;;;;;5076447;28;20029;-66
2022/08/28 08:41:36;;;;;;;17.85;13.07;;;23.50;92.50;;;;;;5071367;28;20341;-67
2022/08/28 08:44:32;;;;;;;15.38;12.27;;;24.40;90.90;;;;;;5073876;28;20405;-67
2022/08/28 08:47:32;;;;;;;15.05;10.70;;;24.80;88.20;;;;;;5072301;28;20123;-66
2022/08/28 08:50:06;;;;;;;16.95;13.02;;;24.40;88.70;;;;;;5075783;28;20098;-66
2022/08/28 08:53:09;;;;;;;17.88;13.27;;;24.20;88.60;;;;;;5058333;28;20497;-66
2022/08/28 08:55:51;;;;;;;15.60;12.02;;;23.50;91.00;;;;;;5072459;28;20299;-66
2022/08/28 08:58:39;;;;;;;18.85;13.13;;;23.20;92.30;;;;;;5069233;28;20135;-66
2022/08/28 09:01:30;;;;;;;18.95;11.35;;;23.30;92.20;;;;;;5074122;28;20036;-66
2022/08/28 09:04:33;;;;;;;14.00;10.75;;;23.30;90.80;;;;;;5074566;28;20166;-65
2022/08/28 09:07:01;;;;;;;17.45;12.40;;;23.40;92.30;;;;;;5069952;28;20027;-67
2022/08/28 09:09:32;;;;;;;17.20;12.50;;;23.70;91.30;;;;;;5074782;28;20044;-67
2022/08/28 09:12:08;;;;;;;16.45;12.65;;;23.60;90.30;;;;;;5073401;28;20095;-67
2022/08/28 09:15:03;;;;;;;17.10;12.77;;;23.30;90.60;;;;;;5075599;28;20021;-67
2022/08/28 09:17:35;;;;;;;16.17;11.85;;;23.10;91.50;;;;;;5074994;28;20032;-66
2022/08/28 09:20:01;;;;;;;14.73;9.90;;;23.20;90.90;;;;;;5073121;28;20490;-66
2022/08/28 09:22:27;;;;;;;17.60;10.13;;;23.40;90.50;;;;;;5069156;28;20455;-66
2022/08/28 09:24:53;;;;;;;17.48;9.63;;;24.10;88.40;;;;;;5074742;28;20032;-66
2022/08/28 09:27:26;;;;;;;12.07;8.73;;;24.70;86.10;;;;;;5071870;28;20044;-66
2022/08/28 09:29:59;;;;;;;12.40;8.85;;;25.80;84.10;;;;;;5072590;28;20044;-67
2022/08/28 09:32:34;;;;;;;11.35;8.32;;;26.80;82.50;;;;;;5072575;28;20036;-67
2022/08/28 09:35:05;;;;;;;12.75;8.02;;;27.80;76.80;;;;;;5063690;28;20021;-66
2022/08/28 09:37:32;;;;;;;13.95;9.05;;;28.70;74.80;;;;;;5074115;28;20032;-66
2022/08/28 09:40:15;;;;;;;12.73;9.07;;;28.40;75.40;;;;;;5071732;28;20028;-67
2022/08/28 09:45:41;;;;;;;14.43;11.88;;;27.30;79.10;;;;;;5067518;28;20109;-66
2022/08/28 09:48:30;;;;;;;14.52;12.32;;;26.00;81.80;;;;;;5074611;28;20507;-66
2022/08/28 09:51:03;;;;;;;15.27;11.55;;;24.90;84.10;;;;;;5070777;28;20103;-67
2022/08/28 09:53:50;;;;;;;14.37;11.00;;;24.40;87.30;;;;;;5065895;28;20043;-66
2022/08/28 09:56:38;;;;;;;22.98;15.70;;;23.70;88.30;;;;;;5073377;28;20143;-66
2022/08/28 09:59:07;;;;;;;17.73;13.63;;;23.70;90.20;;;;;;5069711;28;20025;-65
2022/08/28 10:01:48;;;;;;;16.10;12.65;;;25.00;88.40;;;;;;5068634;28;20099;-67
2022/08/28 10:04:36;;;;;;;19.27;12.98;;;25.60;85.70;;;;;;5071404;28;20364;-66
2022/08/28 10:07:16;;;;;;;14.55;10.00;;;25.60;83.00;;;;;;5070988;28;20463;-66
2022/08/28 10:10:11;;;;;;;12.98;10.70;;;25.90;84.20;;;;;;5072145;28;20033;-66
2022/08/28 10:12:46;;;;;;;14.05;8.93;;;26.00;80.90;;;;;;5070198;28;20174;-66
2022/08/28 10:15:41;;;;;;;11.38;7.40;;;26.20;82.90;;;;;;5068460;28;20021;-66
2022/08/28 10:18:23;;;;;;;11.65;7.65;;;27.60;79.50;;;;;;5072124;28;20381;-66
2022/08/28 10:21:12;;;;;;;13.18;8.20;;;29.00;75.70;;;;;;5073073;28;20024;-66
2022/08/28 10:23:51;;;;;;;11.20;7.78;;;29.70;71.40;;;;;;5062377;28;20037;-66
2022/08/28 10:26:41;;;;;;;15.75;8.07;;;28.50;73.80;;;;;;5067676;28;20036;-67
2022/08/28 10:29:40;;;;;;;13.23;8.88;;;27.80;77.00;;;;;;5067978;28;20120;-66
2022/08/28 10:32:42;;;;;;;13.93;9.27;;;26.90;78.00;;;;;;5067730;28;20111;-68
2022/08/28 10:35:13;;;;;;;11.10;7.70;;;26.50;79.30;;;;;;5064291;28;20042;-66
2022/08/28 10:38:05;;;;;;;10.77;6.40;;;27.60;76.30;;;;;;5074787;28;20032;-66
2022/08/28 10:40:49;;;;;;;9.95;6.45;;;28.70;75.30;;;;;;5070492;28;20152;-67
2022/08/28 10:43:18;;;;;;;11.38;6.57;;;29.50;73.50;;;;;;5071568;28;20028;-66
2022/08/28 10:45:48;;;;;;;10.95;6.38;;;30.10;69.90;;;;;;5074731;28;20032;-67
2022/08/28 10:48:42;;;;;;;9.95;7.07;;;29.80;70.90;;;;;;5075191;28;20070;-67
2022/08/28 10:51:17;;;;;;;9.88;6.93;;;30.20;69.80;;;;;;5071986;28;20078;-67
2022/08/28 10:53:53;;;;;;;12.00;7.18;;;30.20;69.30;;;;;;5066831;28;20032;-67
2022/08/28 10:56:23;;;;;;;9.65;6.97;;;29.80;71.90;;;;;;5074030;28;20333;-67
2022/08/28 10:58:54;;;;;;;9.02;6.80;;;30.10;71.80;;;;;;5074699;28;20024;-66
2022/08/28 11:01:27;;;;;;;10.40;6.90;;;30.60;69.50;;;;;;5067024;28;20029;-67
2022/08/28 11:03:54;;;;;;;10.40;6.87;;;30.30;69.90;;;;;;5070851;28;20036;-66
2022/08/28 11:06:25;;;;;;;10.38;7.18;;;29.60;70.00;;;;;;5075525;28;20025;-66
2022/08/28 11:08:55;;;;;;;11.48;7.47;;;28.70;73.30;;;;;;5073177;28;20405;-66
2022/08/28 11:11:45;;;;;;;10.73;7.50;;;28.60;73.40;;;;;;5074532;28;20413;-66
2022/08/28 11:14:30;;;;;;;11.60;7.60;;;28.10;74.40;;;;;;5074465;28;20044;-66
2022/08/28 11:17:04;;;;;;;10.93;7.00;;;27.30;77.00;;;;;;5074787;28;20489;-68
2022/08/28 11:20:02;;;;;;;15.50;7.13;;;26.60;77.60;;;;;;5070640;28;20287;-65
2022/08/28 11:22:45;;;;;;;9.68;7.63;;;25.60;81.10;;;;;;5072472;28;20055;-65
2022/08/28 11:25:20;;;;;;;10.90;7.25;;;25.10;83.30;;;;;;5076180;28;20031;-66
2022/08/28 11:28:23;;;;;;;10.48;6.78;;;25.90;80.20;;;;;;5071592;28;20333;-64
2022/08/28 11:31:09;;;;;;;10.77;6.78;;;26.30;78.10;;;;;;5065137;28;20020;-65
2022/08/28 11:33:49;;;;;;;10.45;6.18;;;26.20;81.50;;;;;;5071413;28;20025;-66
2022/08/28 11:36:20;;;;;;;10.00;5.50;;;27.20;77.70;;;;;;5061862;28;20107;-66
2022/08/28 11:38:54;;;;;;;10.98;6.00;;;28.00;73.80;;;;;;5061537;28;20051;-67
2022/08/28 11:41:26;;;;;;;12.52;6.47;;;28.60;73.10;;;;;;5058758;28;20032;-66
2022/08/28 11:44:12;;;;;;;8.63;5.70;;;29.10;70.40;;;;;;5063785;28;20056;-65
2022/08/28 11:46:42;;;;;;;12.57;6.07;;;28.90;72.80;;;;;;5066891;28;20032;-66
2022/08/28 11:49:25;;;;;;;13.07;7.60;;;29.10;71.40;;;;;;5068844;28;20028;-66
2022/08/28 11:52:13;;;;;;;13.05;8.40;;;27.70;73.20;;;;;;5065469;28;20032;-65
2022/08/28 11:55:12;;;;;;;10.65;7.07;;;26.70;75.20;;;;;;5074543;28;20042;-64
2022/08/28 11:58:13;;;;;;;8.70;6.05;;;26.60;76.20;;;;;;5065274;28;20025;-66
2022/08/28 12:00:54;;;;;;;9.15;6.00;;;25.80;76.90;;;;;;5073876;28;20405;-65
2022/08/28 12:03:39;;;;;;;11.35;6.22;;;25.40;79.10;;;;;;5073466;28;20375;-65
2022/08/28 12:06:06;;;;;;;8.73;5.95;;;25.80;76.80;;;;;;5070416;28;20036;-65
2022/08/28 12:08:43;;;;;;;8.93;6.45;;;26.60;77.80;;;;;;5071487;28;20075;-67
2022/08/28 12:11:28;;;;;;;10.90;5.75;;;27.30;75.90;;;;;;5072321;28;20020;-65
2022/08/28 12:13:54;;;;;;;8.23;5.68;;;27.30;76.70;;;;;;5072262;28;20110;-65
2022/08/28 12:16:21;;;;;;;8.88;5.78;;;26.60;76.20;;;;;;5070337;28;20214;-65
2022/08/28 12:18:46;;;;;;;9.68;6.35;;;26.50;77.40;;;;;;5073185;28;20417;-65
2022/08/28 12:21:36;;;;;;;11.15;6.22;;;26.60;75.90;;;;;;5071258;28;20128;-65
2022/08/28 12:24:11;;;;;;;7.90;6.38;;;26.80;77.60;;;;;;5069960;28;20418;-65
2022/08/28 12:26:48;;;;;;;10.90;6.28;;;26.70;78.00;;;;;;5067415;28;20064;-65
2022/08/28 12:29:31;;;;;;;10.23;6.03;;;26.60;77.70;;;;;;5061096;28;20028;-65
2022/08/28 12:32:35;;;;;;;10.63;6.90;;;26.70;78.00;;;;;;5066866;28;20102;-65
2022/08/28 12:35:01;;;;;;;9.43;6.00;;;26.40;78.40;;;;;;5063066;28;20045;-66
2022/08/28 12:37:44;;;;;;;10.55;6.10;;;26.40;79.20;;;;;;5068571;28;20039;-67
2022/08/28 12:40:17;;;;;;;11.43;6.47;;;26.70;78.40;;;;;;5068730;28;20025;-65
2022/08/28 12:42:54;;;;;;;9.95;6.43;;;27.10;77.30;;;;;;5068780;28;20028;-65
2022/08/28 12:45:28;;;;;;;10.70;6.55;;;27.10;75.60;;;;;;5073206;28;20033;-65
2022/08/28 12:48:01;;;;;;;10.68;6.55;;;26.90;76.10;;;;;;5072248;28;20090;-67
2022/08/28 12:50:31;;;;;;;9.52;6.57;;;26.60;77.40;;;;;;5072167;28;20333;-67
2022/08/28 12:53:00;;;;;;;9.73;6.82;;;26.30;78.50;;;;;;5072464;28;20108;-66
2022/08/28 12:55:26;;;;;;;11.82;6.72;;;25.80;78.70;;;;;;5072649;28;20066;-66
2022/08/28 12:57:52;;;;;;;11.35;6.43;;;25.30;79.90;;;;;;5071512;28;20044;-66
2022/08/28 13:00:24;;;;;;;9.93;6.63;;;25.10;80.40;;;;;;5069848;28;20071;-66